createdAt,value
2023-02-24T00:00:32.099Z,9.10
2023-02-24T00:05:35.635Z,9.10
2023-02-24T00:10:37.598Z,9.09
2023-02-24T00:15:39.533Z,9.04
2023-02-24T00:20:41.236Z,8.97
2023-02-24T00:25:42.956Z,8.95
2023-02-24T00:30:46.424Z,8.89
2023-02-24T00:35:48.135Z,8.83
2023-02-24T00:40:49.917Z,8.85
2023-02-24T00:45:51.677Z,8.81
2023-02-24T00:50:55.815Z,8.75
2023-02-24T00:56:01.773Z,8.74
2023-02-24T01:01:04.882Z,8.72
2023-02-24T01:06:07.658Z,8.74
2023-02-24T01:11:28.607Z,8.78
2023-02-24T01:16:30.317Z,8.81
2023-02-24T01:21:32.136Z,8.86
2023-02-24T01:26:33.845Z,8.94
2023-02-24T01:31:38.717Z,8.95
2023-02-24T01:36:45.084Z,9.08
2023-02-24T01:41:49.909Z,9.13
2023-02-24T01:46:53.382Z,9.21
2023-02-24T01:52:02.120Z,9.23
2023-02-24T01:57:05.967Z,9.25
2023-02-24T02:02:09.692Z,9.29
2023-02-24T02:07:15.747Z,9.41
2023-02-24T02:12:17.568Z,9.42
2023-02-24T02:17:47.477Z,9.42
2023-02-24T02:23:07.563Z,9.47
2023-02-24T02:28:32.745Z,9.47
2023-02-24T02:34:00.013Z,9.44
2023-02-24T02:39:17.953Z,9.49
2023-02-24T02:44:27.501Z,9.45
2023-02-24T02:49:36.359Z,9.44
2023-02-24T02:54:49.940Z,9.34
2023-02-24T03:00:01.465Z,9.28
2023-02-24T03:05:09.438Z,9.22
2023-02-24T03:10:20.953Z,9.13
2023-02-24T03:15:25.016Z,9.16
2023-02-24T03:20:32.888Z,9.07
2023-02-24T03:26:16.949Z,8.85
2023-02-24T03:31:27.853Z,8.75
2023-02-24T03:36:30.738Z,8.66
2023-02-24T03:41:57.804Z,8.54
2023-02-24T03:47:10.916Z,8.46
2023-02-24T03:52:39.059Z,8.41
2023-02-24T03:58:18.475Z,8.44
2023-02-24T04:03:57.706Z,8.36
2023-02-24T04:09:27.734Z,8.34
2023-02-24T04:15:08.697Z,8.35
2023-02-24T04:20:17.100Z,8.34
2023-02-24T04:25:27.069Z,8.27
2023-02-24T04:30:34.372Z,8.24
2023-02-24T04:35:37.908Z,8.22
2023-02-24T04:40:40.910Z,8.18
2023-02-24T04:45:42.879Z,8.13
2023-02-24T04:50:44.754Z,8.10
2023-02-24T04:55:48.999Z,8.12
2023-02-24T05:06:23.770Z,8.19
2023-02-24T05:11:25.562Z,8.23
2023-02-24T05:16:28.968Z,8.14
2023-02-24T05:21:36.955Z,8.27
2023-02-24T05:26:41.802Z,8.40
2023-02-24T05:31:44.135Z,8.33
2023-02-24T05:36:47.074Z,8.25
2023-02-24T05:41:49.976Z,8.19
2023-02-24T05:47:00.858Z,8.20
2023-02-24T05:52:07.791Z,8.21
2023-02-24T05:57:13.106Z,8.26
2023-02-24T06:02:17.616Z,8.31
2023-02-24T06:07:24.848Z,8.46
2023-02-24T06:12:31.942Z,8.59
2023-02-24T06:17:33.826Z,8.62
2023-02-24T06:22:42.593Z,8.69
2023-02-24T06:27:45.017Z,8.70
2023-02-24T06:32:46.914Z,8.67
2023-02-24T06:37:48.799Z,8.67
2023-02-24T06:42:55.252Z,8.58
2023-02-24T06:47:58.063Z,8.52
2023-02-24T06:53:00.954Z,8.46
2023-02-24T06:58:05.898Z,8.46
2023-02-24T07:03:15.844Z,8.47
2023-02-24T07:08:23.171Z,8.49
2023-02-24T07:13:28.541Z,8.56
2023-02-24T07:18:31.012Z,8.59
2023-02-24T07:23:32.792Z,8.63
2023-02-24T07:28:34.567Z,8.65
2023-02-24T07:33:37.275Z,8.76
2023-02-24T07:38:39.480Z,8.83
2023-02-24T07:43:43.936Z,9.00
2023-02-24T07:48:46.548Z,9.07
2023-02-24T07:53:54.181Z,9.05
2023-02-24T07:59:01.960Z,9.03
2023-02-24T08:04:08.290Z,9.10
2023-02-24T08:09:20.635Z,9.30
2023-02-24T08:14:25.524Z,9.40
2023-02-24T08:19:47.628Z,9.35
2023-02-24T08:25:00.719Z,9.33
2023-02-24T08:30:02.959Z,9.28
2023-02-24T08:35:14.596Z,9.30
2023-02-24T08:40:33.141Z,9.28
2023-02-24T08:45:34.855Z,9.30
2023-02-24T08:50:39.490Z,9.38
2023-02-24T08:55:42.842Z,9.43
2023-02-24T09:00:53.400Z,9.48
2023-02-24T09:05:58.001Z,9.61
2023-02-24T09:11:02.009Z,9.71
2023-02-24T09:16:05.198Z,9.87
2023-02-24T09:21:30.872Z,10.06
2023-02-24T09:26:43.519Z,10.18
2023-02-24T09:31:55.347Z,10.32
2023-02-24T09:37:03.727Z,10.60
2023-02-24T09:42:13.063Z,10.89
2023-02-24T09:47:31.356Z,11.23
2023-02-24T09:52:42.319Z,11.38
2023-02-24T09:58:26.989Z,11.50
2023-02-24T10:03:42.418Z,11.83
2023-02-24T10:09:11.435Z,12.01
2023-02-24T10:14:19.585Z,12.14
2023-02-24T10:19:30.587Z,12.26
2023-02-24T10:24:41.358Z,12.24
2023-02-24T10:29:50.906Z,12.25
2023-02-24T10:34:53.359Z,12.46
2023-02-24T10:40:10.243Z,13.00
2023-02-24T10:45:26.367Z,13.38
2023-02-24T10:50:55.302Z,13.56
2023-02-24T10:56:17.723Z,13.44
2023-02-24T11:01:40.524Z,13.18
2023-02-24T11:06:52.578Z,12.97
2023-02-24T11:12:34.902Z,12.91
2023-02-24T11:17:38.346Z,12.86
2023-02-24T11:22:43.188Z,12.80
2023-02-24T11:27:46.531Z,12.88
2023-02-24T11:33:00.521Z,13.08
2023-02-24T11:38:16.104Z,13.26
2023-02-24T11:43:20.964Z,13.36
2023-02-24T11:48:34.162Z,13.26
2023-02-24T11:53:55.408Z,12.92
2023-02-24T11:59:07.525Z,12.49
2023-02-24T12:04:21.746Z,12.18
2023-02-24T12:09:30.219Z,12.15
2023-02-24T12:14:40.901Z,12.14
2023-02-24T12:20:05.141Z,12.14
2023-02-24T12:25:12.929Z,12.17
2023-02-24T12:30:47.351Z,12.15
2023-02-24T12:36:20.900Z,12.20
2023-02-24T12:41:39.295Z,12.20
2023-02-24T12:46:41.042Z,12.06
2023-02-24T12:52:00.864Z,12.08
2023-02-24T12:57:11.897Z,12.14
2023-02-24T13:02:57.700Z,12.19
2023-02-24T13:08:14.475Z,12.34
2023-02-24T13:13:46.440Z,12.45
2023-02-24T13:18:48.301Z,12.68
2023-02-24T13:23:58.148Z,12.74
2023-02-24T13:29:18.582Z,12.78
2023-02-24T13:34:32.980Z,12.63
2023-02-24T13:39:35.996Z,12.39
2023-02-24T13:45:02.999Z,12.27
2023-02-24T13:50:20.078Z,12.06
2023-02-24T13:55:46.969Z,11.45
2023-02-24T14:01:14.712Z,10.86
2023-02-24T14:06:25.297Z,10.63
2023-02-24T14:11:32.437Z,10.77
2023-02-24T14:16:39.868Z,10.99
2023-02-24T14:21:49.119Z,11.07
2023-02-24T14:26:56.551Z,11.26
2023-02-24T14:31:59.502Z,11.52
2023-02-24T14:37:03.990Z,11.72
2023-02-24T14:42:14.795Z,11.98
2023-02-24T14:47:19.018Z,12.36
2023-02-24T14:52:38.392Z,12.50
2023-02-24T14:57:45.246Z,12.44
2023-02-24T15:02:52.889Z,12.35
2023-02-24T15:07:54.688Z,12.12
2023-02-24T15:13:01.073Z,11.88
2023-02-24T15:18:25.781Z,11.71
2023-02-24T15:23:47.561Z,11.59
2023-02-24T15:28:56.454Z,11.34
2023-02-24T15:34:03.379Z,11.25
2023-02-24T15:39:15.695Z,11.13
2023-02-24T15:44:33.970Z,11.07
2023-02-24T15:49:35.677Z,11.04
2023-02-24T15:54:39.293Z,11.06
2023-02-24T15:59:41.190Z,11.01
2023-02-24T16:04:42.993Z,11.03
2023-02-24T16:09:46.922Z,10.95
2023-02-24T16:15:02.188Z,10.91
2023-02-24T16:20:08.602Z,10.92
2023-02-24T16:25:15.294Z,10.88
2023-02-24T16:30:22.461Z,10.66
2023-02-24T16:35:25.943Z,10.23
2023-02-24T16:40:30.950Z,10.18
2023-02-24T16:45:34.494Z,9.78
2023-02-24T16:50:39.508Z,9.40
2023-02-24T16:55:43.278Z,9.03
2023-02-24T17:00:48.007Z,8.69
2023-02-24T17:05:51.636Z,8.36
2023-02-24T17:10:54.230Z,8.06
2023-02-24T17:15:57.440Z,7.87
2023-02-24T17:20:59.719Z,7.81
2023-02-24T17:26:02.715Z,7.74
2023-02-24T17:31:05.525Z,7.71
2023-02-24T17:36:07.522Z,7.74
2023-02-24T17:41:09.912Z,7.86
2023-02-24T17:46:11.689Z,7.88
2023-02-24T17:51:20.036Z,7.95
2023-02-24T17:56:22.204Z,8.11
2023-02-24T18:01:26.113Z,8.19
2023-02-24T18:06:27.877Z,8.31
2023-02-24T18:11:29.635Z,8.39
2023-02-24T18:16:31.476Z,8.42
2023-02-24T18:21:33.374Z,8.43
2023-02-24T18:26:35.705Z,8.41
2023-02-24T18:31:37.669Z,8.31
2023-02-24T18:36:40.456Z,8.20
2023-02-24T18:41:42.462Z,8.14
2023-02-24T18:46:44.394Z,8.07
2023-02-24T18:51:48.886Z,8.11
2023-02-24T18:56:50.928Z,8.11
2023-02-24T19:01:53.998Z,8.11
2023-02-24T19:06:55.817Z,8.10
2023-02-24T19:11:57.584Z,8.10
2023-02-24T19:17:01.241Z,8.04
2023-02-24T19:22:03.024Z,7.94
2023-02-24T19:27:04.781Z,8.10
2023-02-24T19:32:06.654Z,8.13
2023-02-24T19:37:08.577Z,8.15
2023-02-24T19:42:10.391Z,8.15
2023-02-24T19:47:12.138Z,8.17
2023-02-24T19:52:14.078Z,8.19
2023-02-24T19:57:15.933Z,8.23
2023-02-24T20:02:17.761Z,8.30
2023-02-24T20:07:19.673Z,8.36
2023-02-24T20:12:21.573Z,8.41
2023-02-24T20:17:23.385Z,8.41
2023-02-24T20:22:25.129Z,8.46
2023-02-24T20:27:26.905Z,8.48
2023-02-24T20:32:28.746Z,8.52
2023-02-24T20:37:30.528Z,8.60
2023-02-24T20:42:32.356Z,8.68
2023-02-24T20:47:34.077Z,8.72
2023-02-24T20:52:37.660Z,8.68
2023-02-24T20:57:40.559Z,8.40
2023-02-24T21:02:42.808Z,8.23
2023-02-24T21:07:44.595Z,8.34
2023-02-24T21:12:47.369Z,8.36
2023-02-24T21:17:49.082Z,8.37
2023-02-24T21:22:52.506Z,8.42
2023-02-24T21:27:57.332Z,8.48
2023-02-24T21:32:59.100Z,8.47
2023-02-24T21:38:00.903Z,8.44
2023-02-24T21:43:04.512Z,8.43
2023-02-24T21:48:06.797Z,8.34
2023-02-24T21:53:08.786Z,8.24
2023-02-24T21:58:10.495Z,8.16
2023-02-24T22:03:12.581Z,8.13
2023-02-24T22:08:14.511Z,8.05
2023-02-24T22:13:22.786Z,8.11
2023-02-24T22:18:24.656Z,8.14
2023-02-24T22:23:26.721Z,8.18
2023-02-24T22:28:28.493Z,8.15
2023-02-24T22:33:32.310Z,7.89
2023-02-24T22:38:35.740Z,7.73
2023-02-24T22:43:37.699Z,7.80
2023-02-24T22:48:40.595Z,7.94
2023-02-24T22:53:46.673Z,8.07
2023-02-24T22:58:48.995Z,8.12
2023-02-24T23:03:51.711Z,8.06
2023-02-24T23:08:54.514Z,7.99
2023-02-24T23:13:58.979Z,7.86
2023-02-24T23:19:06.092Z,7.68
2023-02-24T23:24:11.087Z,7.55
2023-02-24T23:29:15.499Z,7.38
2023-02-24T23:34:18.887Z,7.16
2023-02-24T23:39:23.646Z,7.15
2023-02-24T23:44:25.776Z,7.00
2023-02-24T23:49:36.278Z,6.88
2023-02-24T23:54:41.036Z,6.83
2023-02-24T23:59:43.044Z,6.78
